Aviation Digital Data Service (ADDS)

Output produced by METARs form (1855 UTC 31 July 2021)
found at http://www.aviationweather.gov/metar/data/
 
METAR text: LFLC 311830Z AUTO 00000KT CAVOK 16/12 Q1013 TEMPO SCT020 BKN030 SCT040TCU
Conditions at: LFLC (CLERMONT/AULNAT , FR) observed 1830 UTC 31 July 2021
Temperature: 16.0°C (61°F)
Dewpoint: 12.0°C (54°F) [RH = 77%]
Pressure (altimeter): 29.91 inches Hg (1013.0 mb)
Winds: calm
Visibility: 6 or more miles (10+ km)
Ceiling: ceiling and visibility are OK
Clouds: unknown
Weather: no significant weather observed at this time

Forecast for: LFLC (CLERMONT/AULNAT , FR)
Text: TAF LFLC 311100Z 3112/0112 05005KT 9999 SCT040
Forecast period: 1200 UTC 31 July 2021 to 1200 UTC 01 August 2021
Forecast type: FROM: standard forecast or significant change
Winds: from the NE (50 degrees) at 6 MPH (5 knots; 2.6 m/s)
Visibility: 6 or more miles (10+ km)
Ceiling: at least 12,000 feet AGL
Clouds: scattered clouds at 4000 feet AGL
Weather: no significant weather forecast for this period
Text: PROB40
Forecast period: 1200 UTC 31 July 2021 to 1200 UTC 01 August 2021
Forecast type: TEMPORARY: The following changes expected for less than half the time period
Visibility: missing
Ceiling: 3500 feet AGL
Clouds: broken clouds at 3500 feet AGL
scattered clouds at 4500 feet AGL
Weather: -SHRA  (light rain showers)